Time;durP1;ratioP1;P1;durP2;ratioP2;P2;SDS_P1;SDS_P2;PMS_P1;PMS_P2;Temp;Humidity;BMP_temperature;BMP_pressure;BME280_temperature;BME280_humidity;BME280_pressure;Samples;Min_cycle;Max_cycle;Signal;HPM_P1;HPM_P2
2022/01/31 00:00:11;;;;;;;13.03;5.67;;;;;;;;;;5039561;28;20761;-80
2022/01/31 00:02:38;;;;;;;15.90;6.07;;;;;;;;;;5037348;28;20236;-80
2022/01/31 00:05:05;;;;;;;17.60;6.70;;;;;;;;;;5042637;28;20272;-81
2022/01/31 00:07:34;;;;;;;14.30;6.10;;;;;;;;;;5039850;28;20245;-80
2022/01/31 00:10:05;;;;;;;13.83;5.83;;;;;;;;;;5041078;28;20202;-81
2022/01/31 00:12:37;;;;;;;13.07;5.20;;;;;;;;;;5040149;28;20290;-81
2022/01/31 00:15:04;;;;;;;12.50;5.03;;;;;;;;;;5039538;28;20253;-82
2022/01/31 00:17:32;;;;;;;12.27;5.60;;;;;;;;;;5040481;28;20234;-80
2022/01/31 00:19:59;;;;;;;15.17;6.40;;;;;;;;;;5040645;28;20206;-81
2022/01/31 00:22:26;;;;;;;10.87;5.03;;;;;;;;;;5038977;28;20238;-80
2022/01/31 00:24:54;;;;;;;5.97;4.57;;;;;;;;;;5039433;28;20241;-81
2022/01/31 00:27:21;;;;;;;11.23;4.50;;;;;;;;;;5038507;28;20230;-81
2022/01/31 00:29:48;;;;;;;8.23;4.63;;;;;;;;;;5039788;28;20206;-81
2022/01/31 00:32:15;;;;;;;11.73;4.80;;;;;;;;;;5015959;28;20231;-79
2022/01/31 00:34:42;;;;;;;9.83;4.63;;;;;;;;;;5015845;28;20239;-79
2022/01/31 00:37:09;;;;;;;16.47;4.67;;;;;;;;;;5015481;28;20231;-79
2022/01/31 00:39:37;;;;;;;8.43;4.57;;;;;;;;;;5016525;28;20794;-80
2022/01/31 00:42:07;;;;;;;10.50;4.23;;;;;;;;;;5025972;28;20260;-80
2022/01/31 00:44:42;;;;;;;8.43;4.60;;;;;;;;;;5036246;28;20322;-80
2022/01/31 00:47:18;;;;;;;10.13;4.60;;;;;;;;;;5036418;28;20230;-80
2022/01/31 00:49:50;;;;;;;11.60;4.70;;;;;;;;;;5037030;28;20297;-80
2022/01/31 00:52:18;;;;;;;16.30;4.73;;;;;;;;;;5035601;28;20252;-80
2022/01/31 00:54:45;;;;;;;8.60;4.50;;;;;;;;;;5036355;28;20660;-80
2022/01/31 00:57:14;;;;;;;8.13;4.23;;;;;;;;;;5036765;28;20261;-80
2022/01/31 00:59:41;;;;;;;6.17;3.73;;;;;;;;;;5036983;28;20198;-80
2022/01/31 01:02:08;;;;;;;9.50;3.97;;;;;;;;;;5036667;28;20234;-80
2022/01/31 01:04:35;;;;;;;6.07;3.37;;;;;;;;;;5036039;28;20239;-80
2022/01/31 01:07:02;;;;;;;8.53;3.37;;;;;;;;;;5034261;28;20238;-79
2022/01/31 01:09:29;;;;;;;14.93;4.53;;;;;;;;;;5034251;28;20203;-79
2022/01/31 01:11:56;;;;;;;8.83;3.63;;;;;;;;;;5034086;28;20235;-79
2022/01/31 01:14:24;;;;;;;14.33;4.50;;;;;;;;;;5037436;28;20624;-79
2022/01/31 01:16:51;;;;;;;9.93;4.87;;;;;;;;;;5036920;28;20261;-79
2022/01/31 01:19:18;;;;;;;6.10;3.10;;;;;;;;;;5038010;28;20562;-79
2022/01/31 01:21:46;;;;;;;5.93;3.50;;;;;;;;;;5037866;28;20256;-79
2022/01/31 01:24:14;;;;;;;17.47;4.37;;;;;;;;;;5037945;28;20583;-79
2022/01/31 01:26:41;;;;;;;12.87;4.03;;;;;;;;;;5037510;28;20645;-79
2022/01/31 01:29:09;;;;;;;10.67;5.10;;;;;;;;;;5038310;28;20214;-79
2022/01/31 01:31:37;;;;;;;7.53;4.37;;;;;;;;;;5037302;28;20217;-79
2022/01/31 01:34:04;;;;;;;8.60;4.13;;;;;;;;;;5038057;28;20243;-79
2022/01/31 01:36:32;;;;;;;10.20;4.37;;;;;;;;;;5037876;28;20206;-79
2022/01/31 01:38:59;;;;;;;5.13;4.23;;;;;;;;;;5038308;28;20213;-79
2022/01/31 01:41:26;;;;;;;16.77;5.00;;;;;;;;;;5037733;28;20705;-80
2022/01/31 01:43:53;;;;;;;7.57;3.87;;;;;;;;;;5038137;28;20234;-79
2022/01/31 01:46:20;;;;;;;9.67;2.87;;;;;;;;;;5038110;28;20323;-79
2022/01/31 01:48:49;;;;;;;8.23;3.87;;;;;;;;;;5038344;28;20632;-79
2022/01/31 01:51:16;;;;;;;20.57;4.57;;;;;;;;;;5037915;28;20582;-79
2022/01/31 01:53:43;;;;;;;11.03;4.67;;;;;;;;;;5037570;28;20238;-81
2022/01/31 01:56:11;;;;;;;8.47;3.90;;;;;;;;;;5039124;28;20620;-80
2022/01/31 01:58:40;;;;;;;6.67;2.93;;;;;;;;;;5038485;28;20223;-81
2022/01/31 02:01:08;;;;;;;5.00;3.40;;;;;;;;;;5040799;28;20611;-81
2022/01/31 02:03:36;;;;;;;9.57;3.87;;;;;;;;;;5041296;28;20231;-81
2022/01/31 02:06:05;;;;;;;19.37;4.30;;;;;;;;;;5035260;28;20210;-81
2022/01/31 02:08:39;;;;;;;7.67;3.50;;;;;;;;;;5058782;28;20234;-81
2022/01/31 02:11:07;;;;;;;6.30;3.47;;;;;;;;;;5046385;28;20203;-81
2022/01/31 02:13:35;;;;;;;7.83;3.10;;;;;;;;;;5038475;28;20579;-81
2022/01/31 02:16:02;;;;;;;8.53;3.37;;;;;;;;;;5038871;28;20636;-81
2022/01/31 02:18:30;;;;;;;8.83;3.40;;;;;;;;;;5038490;28;20238;-81
2022/01/31 02:20:58;;;;;;;7.40;3.43;;;;;;;;;;5038869;28;20211;-80
2022/01/31 02:23:25;;;;;;;6.50;3.67;;;;;;;;;;5037969;28;20283;-80
2022/01/31 02:25:53;;;;;;;2.30;2.10;;;;;;;;;;5034918;28;20697;-78
2022/01/31 02:28:20;;;;;;;8.10;4.13;;;;;;;;;;5034190;28;20258;-78
2022/01/31 02:30:48;;;;;;;7.80;5.03;;;;;;;;;;5034483;28;20666;-78
2022/01/31 02:33:15;;;;;;;10.40;4.23;;;;;;;;;;5034040;28;20742;-78
2022/01/31 02:35:42;;;;;;;2.70;2.27;;;;;;;;;;5034590;28;20198;-78
2022/01/31 02:38:10;;;;;;;8.90;3.70;;;;;;;;;;5033986;28;20231;-78
2022/01/31 02:40:37;;;;;;;6.73;3.50;;;;;;;;;;5034659;28;20260;-78
2022/01/31 02:43:04;;;;;;;3.30;2.27;;;;;;;;;;5033873;28;20610;-78
2022/01/31 02:45:31;;;;;;;13.20;3.90;;;;;;;;;;5034907;28;20206;-78
2022/01/31 02:48:00;;;;;;;5.47;2.73;;;;;;;;;;5034015;28;20238;-78
2022/01/31 02:50:28;;;;;;;9.67;3.50;;;;;;;;;;5014649;28;20200;-78
2022/01/31 02:53:09;;;;;;;6.97;4.30;;;;;;;;;;5014047;28;20242;-78
2022/01/31 02:55:38;;;;;;;9.83;2.97;;;;;;;;;;5014757;28;20187;-78
2022/01/31 02:58:05;;;;;;;7.83;3.77;;;;;;;;;;5014195;28;20287;-78
2022/01/31 03:00:32;;;;;;;6.17;2.43;;;;;;;;;;5014176;28;20259;-78
2022/01/31 03:02:59;;;;;;;8.27;3.50;;;;;;;;;;5014486;28;20266;-78
2022/01/31 03:05:26;;;;;;;5.90;3.43;;;;;;;;;;5015603;28;20214;-79
2022/01/31 03:07:53;;;;;;;9.30;3.83;;;;;;;;;;5017683;28;20231;-79
2022/01/31 03:10:20;;;;;;;9.83;3.03;;;;;;;;;;5038373;28;20213;-80
2022/01/31 03:12:49;;;;;;;7.07;3.50;;;;;;;;;;5038093;28;20234;-79
2022/01/31 03:15:16;;;;;;;4.40;2.73;;;;;;;;;;5037918;28;20580;-80
2022/01/31 03:17:46;;;;;;;6.93;3.40;;;;;;;;;;5038032;28;20772;-80
2022/01/31 03:20:14;;;;;;;6.77;3.10;;;;;;;;;;5038505;28;20278;-80
2022/01/31 03:22:41;;;;;;;6.00;3.00;;;;;;;;;;5037563;28;20247;-80
2022/01/31 03:25:08;;;;;;;4.63;3.10;;;;;;;;;;5038216;28;20210;-80
2022/01/31 03:27:35;;;;;;;4.97;3.37;;;;;;;;;;5037656;28;20234;-79
2022/01/31 03:30:04;;;;;;;7.57;3.50;;;;;;;;;;5038039;28;20623;-80
2022/01/31 03:32:31;;;;;;;9.17;3.37;;;;;;;;;;5037282;28;20233;-80
2022/01/31 03:34:58;;;;;;;9.70;3.30;;;;;;;;;;5038504;28;20222;-80
2022/01/31 03:37:25;;;;;;;7.53;3.50;;;;;;;;;;5036461;28;20789;-80
2022/01/31 03:39:52;;;;;;;15.40;3.50;;;;;;;;;;5037645;28;20237;-80
2022/01/31 03:42:19;;;;;;;4.80;2.90;;;;;;;;;;5037174;28;20239;-79
2022/01/31 03:44:47;;;;;;;8.90;3.63;;;;;;;;;;5038243;28;20286;-79
2022/01/31 03:47:15;;;;;;;7.60;3.90;;;;;;;;;;5037499;28;20265;-79
2022/01/31 03:49:43;;;;;;;6.23;3.10;;;;;;;;;;5037623;28;20216;-79
2022/01/31 03:52:10;;;;;;;10.10;3.77;;;;;;;;;;5036605;28;20239;-80
2022/01/31 03:54:37;;;;;;;7.90;3.50;;;;;;;;;;5037433;28;20222;-80
2022/01/31 03:57:04;;;;;;;10.00;4.10;;;;;;;;;;5037581;28;20226;-80
2022/01/31 03:59:31;;;;;;;2.20;2.03;;;;;;;;;;5037510;28;20206;-80
2022/01/31 04:01:58;;;;;;;20.43;3.40;;;;;;;;;;5036484;28;20238;-80
2022/01/31 04:04:27;;;;;;;7.47;3.57;;;;;;;;;;5037119;28;20231;-80
2022/01/31 04:06:54;;;;;;;4.07;3.33;;;;;;;;;;5036965;28;20242;-80
2022/01/31 04:09:21;;;;;;;5.67;2.87;;;;;;;;;;5037524;28;20195;-80
2022/01/31 04:11:48;;;;;;;5.63;3.37;;;;;;;;;;5037353;28;20244;-80
2022/01/31 04:14:15;;;;;;;4.27;3.13;;;;;;;;;;5037929;28;20223;-80
2022/01/31 04:16:42;;;;;;;8.60;3.60;;;;;;;;;;5036623;28;20242;-80
2022/01/31 04:19:09;;;;;;;7.73;4.23;;;;;;;;;;5037529;28;20214;-80
2022/01/31 04:21:38;;;;;;;8.17;3.40;;;;;;;;;;5037212;28;20202;-80
2022/01/31 04:24:05;;;;;;;10.37;3.63;;;;;;;;;;5037961;28;20232;-81
2022/01/31 04:26:34;;;;;;;10.87;3.63;;;;;;;;;;5037843;28;20301;-80
2022/01/31 04:29:06;;;;;;;11.00;3.67;;;;;;;;;;5037954;28;20199;-80
2022/01/31 04:31:40;;;;;;;9.30;3.30;;;;;;;;;;5036923;28;20201;-80
2022/01/31 04:34:09;;;;;;;10.90;3.63;;;;;;;;;;5037749;28;20273;-81
2022/01/31 04:36:37;;;;;;;8.23;3.63;;;;;;;;;;5037430;28;20206;-80
2022/01/31 04:39:05;;;;;;;4.40;3.00;;;;;;;;;;5037907;28;20219;-80
2022/01/31 04:41:32;;;;;;;5.03;3.50;;;;;;;;;;5036973;28;20212;-80
2022/01/31 04:44:05;;;;;;;17.77;4.07;;;;;;;;;;5058225;22;20304;-80
2022/01/31 04:46:32;;;;;;;13.60;4.73;;;;;;;;;;5073033;28;20260;-80
2022/01/31 04:48:59;;;;;;;11.83;5.00;;;;;;;;;;5073436;28;20563;-80
2022/01/31 04:51:26;;;;;;;8.43;4.43;;;;;;;;;;5073338;28;20251;-80
2022/01/31 04:53:54;;;;;;;12.40;4.83;;;;;;;;;;5073534;28;20255;-80
2022/01/31 04:56:22;;;;;;;7.17;4.27;;;;;;;;;;5073747;28;20294;-80
2022/01/31 04:58:50;;;;;;;7.73;3.57;;;;;;;;;;5073819;28;20921;-79
2022/01/31 05:01:17;;;;;;;17.60;4.70;;;;;;;;;;5074125;28;20209;-80
2022/01/31 05:03:45;;;;;;;13.20;5.27;;;;;;;;;;5073418;28;20237;-80
2022/01/31 05:06:15;;;;;;;7.70;4.23;;;;;;;;;;5073792;28;20263;-80
2022/01/31 05:08:42;;;;;;;11.37;4.67;;;;;;;;;;5074708;28;20709;-80
2022/01/31 05:11:12;;;;;;;8.40;4.70;;;;;;;;;;5075576;28;20270;-80
2022/01/31 05:13:39;;;;;;;8.50;5.00;;;;;;;;;;5076115;28;20238;-80
2022/01/31 05:16:06;;;;;;;12.57;4.43;;;;;;;;;;5075672;28;20244;-80
2022/01/31 05:18:34;;;;;;;11.03;5.07;;;;;;;;;;5076062;28;20238;-80
2022/01/31 05:21:01;;;;;;;7.33;4.17;;;;;;;;;;5076454;28;20216;-80
2022/01/31 05:23:29;;;;;;;10.53;6.13;;;;;;;;;;5074343;28;20239;-80
2022/01/31 05:25:56;;;;;;;13.33;4.47;;;;;;;;;;5075091;28;20208;-80
2022/01/31 05:28:25;;;;;;;14.40;5.30;;;;;;;;;;5074303;28;20233;-80
2022/01/31 05:30:52;;;;;;;9.37;4.53;;;;;;;;;;5075021;28;20207;-80
2022/01/31 05:33:19;;;;;;;8.17;4.67;;;;;;;;;;5074934;28;20248;-80
2022/01/31 05:35:46;;;;;;;13.80;4.90;;;;;;;;;;5075946;28;20234;-80
2022/01/31 05:38:13;;;;;;;8.33;4.53;;;;;;;;;;5075466;28;20759;-80
2022/01/31 05:40:40;;;;;;;8.03;3.90;;;;;;;;;;5079748;28;20221;-80
2022/01/31 05:43:07;;;;;;;14.10;5.13;;;;;;;;;;5075122;28;20237;-80
2022/01/31 05:45:36;;;;;;;19.57;5.33;;;;;;;;;;5075885;28;20239;-80
2022/01/31 05:48:03;;;;;;;9.67;5.17;;;;;;;;;;5076057;28;20240;-80
2022/01/31 05:50:30;;;;;;;9.97;4.43;;;;;;;;;;5076628;28;20214;-80
2022/01/31 05:52:57;;;;;;;9.23;4.40;;;;;;;;;;5075412;28;20237;-80
2022/01/31 05:55:24;;;;;;;6.80;3.43;;;;;;;;;;5074469;28;20229;-80
2022/01/31 05:57:51;;;;;;;14.87;4.47;;;;;;;;;;5075115;28;20238;-80
2022/01/31 06:00:18;;;;;;;9.80;4.70;;;;;;;;;;5077730;28;20211;-81
2022/01/31 06:02:47;;;;;;;15.53;4.30;;;;;;;;;;5080826;28;20610;-81
2022/01/31 06:05:14;;;;;;;9.80;4.43;;;;;;;;;;5084019;28;20225;-82
2022/01/31 06:07:41;;;;;;;14.63;5.33;;;;;;;;;;5082255;28;20233;-83
2022/01/31 06:10:09;;;;;;;12.50;4.80;;;;;;;;;;5078020;28;20552;-85
2022/01/31 06:12:40;;;;;;;10.83;5.40;;;;;;;;;;5075340;28;20733;-84
2022/01/31 06:15:08;;;;;;;15.03;6.27;;;;;;;;;;5074768;28;20312;-85
2022/01/31 06:17:35;;;;;;;6.63;4.63;;;;;;;;;;5074279;28;20242;-85
2022/01/31 06:20:05;;;;;;;9.53;4.43;;;;;;;;;;5074768;28;20212;-84
2022/01/31 06:22:32;;;;;;;9.53;4.60;;;;;;;;;;5073976;28;20729;-85
2022/01/31 06:24:59;;;;;;;13.30;5.40;;;;;;;;;;5074142;28;20233;-85
2022/01/31 06:27:26;;;;;;;9.60;5.37;;;;;;;;;;5074185;28;20237;-84
2022/01/31 06:29:53;;;;;;;11.07;4.57;;;;;;;;;;5074760;28;20205;-84
2022/01/31 06:32:22;;;;;;;11.97;6.30;;;;;;;;;;5073720;28;20379;-84
2022/01/31 06:34:49;;;;;;;7.33;4.27;;;;;;;;;;5074228;28;20228;-84
2022/01/31 06:37:18;;;;;;;7.60;4.07;;;;;;;;;;5074004;28;20235;-84
2022/01/31 06:39:45;;;;;;;9.43;5.90;;;;;;;;;;5074685;28;20260;-84
2022/01/31 06:42:12;;;;;;;7.47;3.57;;;;;;;;;;5073610;28;20661;-84
2022/01/31 06:44:39;;;;;;;11.10;5.40;;;;;;;;;;5077511;28;20322;-83
2022/01/31 06:47:07;;;;;;;12.27;5.63;;;;;;;;;;5079227;28;20315;-83
2022/01/31 06:49:34;;;;;;;7.00;3.37;;;;;;;;;;5078155;28;20205;-84
2022/01/31 06:52:01;;;;;;;10.10;5.47;;;;;;;;;;5073976;28;20233;-84
2022/01/31 06:54:29;;;;;;;6.57;4.90;;;;;;;;;;5074776;28;20233;-84
2022/01/31 06:56:58;;;;;;;9.47;4.93;;;;;;;;;;5074988;28;20244;-85
2022/01/31 06:59:25;;;;;;;6.90;3.80;;;;;;;;;;5077482;28;20209;-85
2022/01/31 07:01:52;;;;;;;11.37;4.53;;;;;;;;;;5075556;28;20704;-85
2022/01/31 07:04:19;;;;;;;5.63;4.60;;;;;;;;;;5074031;28;20233;-85
2022/01/31 07:06:46;;;;;;;10.03;4.83;;;;;;;;;;5074224;28;20244;-84
2022/01/31 07:09:13;;;;;;;10.43;4.30;;;;;;;;;;5075816;28;20217;-85
2022/01/31 07:11:43;;;;;;;5.80;4.10;;;;;;;;;;5077907;28;20298;-85
2022/01/31 07:14:29;;;;;;;5.87;3.70;;;;;;;;;;5079475;28;20259;-84
2022/01/31 07:16:56;;;;;;;6.73;3.67;;;;;;;;;;5078384;28;20316;-84
2022/01/31 07:19:27;;;;;;;7.47;3.50;;;;;;;;;;5076620;28;20211;-85
2022/01/31 07:21:54;;;;;;;6.20;3.00;;;;;;;;;;5078087;28;20241;-84
2022/01/31 07:24:22;;;;;;;4.40;3.50;;;;;;;;;;5080603;28;20229;-83
2022/01/31 07:26:51;;;;;;;3.90;3.57;;;;;;;;;;5081678;28;20682;-83
2022/01/31 07:29:19;;;;;;;3.93;3.63;;;;;;;;;;5082654;28;20205;-82
2022/01/31 07:31:46;;;;;;;6.47;3.30;;;;;;;;;;5080584;28;20721;-83
2022/01/31 07:34:15;;;;;;;4.43;3.60;;;;;;;;;;5080385;28;20586;-83
2022/01/31 07:36:42;;;;;;;5.03;3.60;;;;;;;;;;5086200;28;20259;-82
2022/01/31 07:39:09;;;;;;;5.53;4.13;;;;;;;;;;5078940;28;20206;-82
2022/01/31 07:41:36;;;;;;;5.17;3.73;;;;;;;;;;5077376;28;20209;-82
2022/01/31 07:44:05;;;;;;;6.47;3.50;;;;;;;;;;5077430;28;20225;-83
2022/01/31 07:46:32;;;;;;;4.10;3.70;;;;;;;;;;5077540;28;20212;-83
2022/01/31 07:48:59;;;;;;;4.43;2.87;;;;;;;;;;5077076;28;20300;-83
2022/01/31 07:51:26;;;;;;;5.57;4.13;;;;;;;;;;5076931;28;20221;-83
2022/01/31 07:53:53;;;;;;;3.47;2.90;;;;;;;;;;5077016;28;20226;-83
2022/01/31 07:56:20;;;;;;;3.57;3.20;;;;;;;;;;5076284;28;20212;-83
2022/01/31 07:58:47;;;;;;;3.37;3.07;;;;;;;;;;5077082;28;20591;-83
2022/01/31 08:01:16;;;;;;;4.33;3.13;;;;;;;;;;5077238;28;20251;-83
2022/01/31 08:03:45;;;;;;;6.97;2.83;;;;;;;;;;5075176;28;20609;-82
2022/01/31 08:06:12;;;;;;;4.07;3.50;;;;;;;;;;5074238;28;20234;-82
2022/01/31 08:08:39;;;;;;;3.53;3.13;;;;;;;;;;5074592;28;20229;-82
2022/01/31 08:11:06;;;;;;;3.63;3.13;;;;;;;;;;5076847;28;20346;-83
2022/01/31 08:13:34;;;;;;;2.90;2.63;;;;;;;;;;5076930;28;21144;-83
2022/01/31 08:16:09;;;;;;;3.43;3.07;;;;;;;;;;5077040;28;20205;-83
2022/01/31 08:18:38;;;;;;;3.70;2.60;;;;;;;;;;5077249;28;20262;-83
2022/01/31 08:21:05;;;;;;;3.67;2.53;;;;;;;;;;5063916;28;20242;-83
2022/01/31 08:23:32;;;;;;;2.80;2.60;;;;;;;;;;5056851;28;20725;-82
2022/01/31 08:26:01;;;;;;;2.80;2.47;;;;;;;;;;5057999;28;20232;-83
2022/01/31 08:28:35;;;;;;;2.20;2.10;;;;;;;;;;5057890;28;20240;-83
2022/01/31 08:31:07;;;;;;;3.87;2.60;;;;;;;;;;5058277;28;20856;-83
2022/01/31 08:33:37;;;;;;;5.10;2.73;;;;;;;;;;5057126;28;20229;-83
2022/01/31 08:36:07;;;;;;;2.90;2.70;;;;;;;;;;5058375;28;20241;-82
2022/01/31 08:38:34;;;;;;;4.10;2.80;;;;;;;;;;5058745;28;20230;-82
2022/01/31 08:41:01;;;;;;;3.27;2.90;;;;;;;;;;5058431;28;20206;-83
2022/01/31 08:43:29;;;;;;;2.80;2.57;;;;;;;;;;5056533;28;20282;-83
2022/01/31 08:45:56;;;;;;;3.67;2.80;;;;;;;;;;5056986;28;20237;-83
2022/01/31 08:48:24;;;;;;;2.80;2.60;;;;;;;;;;5056075;28;20296;-83
2022/01/31 08:50:51;;;;;;;4.10;2.87;;;;;;;;;;5057704;28;20203;-82
2022/01/31 08:53:20;;;;;;;5.17;3.23;;;;;;;;;;5056136;28;20588;-83
2022/01/31 08:55:49;;;;;;;2.97;2.47;;;;;;;;;;5056737;28;20220;-82
2022/01/31 08:58:16;;;;;;;2.50;2.30;;;;;;;;;;5055311;28;20229;-82
2022/01/31 09:00:43;;;;;;;3.27;2.40;;;;;;;;;;5056253;28;20215;-81
2022/01/31 09:03:23;;;;;;;7.90;2.60;;;;;;;;;;5054016;28;20243;-83
2022/01/31 09:05:50;;;;;;;3.20;2.90;;;;;;;;;;5063938;28;20239;-82
2022/01/31 09:08:17;;;;;;;3.43;2.30;;;;;;;;;;5073468;28;20239;-83
2022/01/31 09:10:46;;;;;;;3.00;2.63;;;;;;;;;;5073640;28;20572;-82
2022/01/31 09:13:14;;;;;;;2.70;2.40;;;;;;;;;;5073147;28;20235;-83
2022/01/31 09:15:45;;;;;;;4.27;2.40;;;;;;;;;;5073172;28;20229;-83
2022/01/31 09:18:12;;;;;;;4.13;3.00;;;;;;;;;;5072706;28;20236;-83
2022/01/31 09:20:39;;;;;;;5.20;2.60;;;;;;;;;;5073535;28;20215;-83
2022/01/31 09:23:07;;;;;;;5.10;2.50;;;;;;;;;;5072775;28;20228;-82
2022/01/31 09:25:35;;;;;;;4.27;3.07;;;;;;;;;;5071801;28;20326;-83
2022/01/31 09:28:04;;;;;;;6.97;3.40;;;;;;;;;;5071326;28;20736;-83
2022/01/31 09:30:31;;;;;;;4.60;2.90;;;;;;;;;;5071157;28;20213;-83
2022/01/31 09:32:59;;;;;;;3.97;3.17;;;;;;;;;;5071686;28;20238;-83
2022/01/31 09:35:26;;;;;;;3.63;3.20;;;;;;;;;;5072228;28;20240;-83
2022/01/31 09:37:53;;;;;;;3.13;2.93;;;;;;;;;;5071712;28;20243;-83
2022/01/31 09:40:23;;;;;;;2.60;2.40;;;;;;;;;;5071419;28;20210;-83
2022/01/31 09:43:11;;;;;;;4.73;2.83;;;;;;;;;;5067865;28;20246;-83
2022/01/31 09:45:58;;;;;;;2.30;2.03;;;;;;;;;;5068724;28;20230;-82
2022/01/31 09:48:33;;;;;;;3.63;2.50;;;;;;;;;;5076045;28;20786;-82
2022/01/31 09:51:01;;;;;;;2.60;2.40;;;;;;;;;;5076773;28;20304;-82
2022/01/31 09:53:28;;;;;;;2.57;2.37;;;;;;;;;;5075777;28;20236;-82
2022/01/31 09:55:56;;;;;;;2.43;2.20;;;;;;;;;;5074864;28;20201;-82
2022/01/31 09:58:24;;;;;;;5.20;2.77;;;;;;;;;;5074368;28;20231;-82
2022/01/31 10:01:04;;;;;;;2.73;2.13;;;;;;;;;;5077019;28;20606;-82
2022/01/31 10:03:31;;;;;;;7.50;2.90;;;;;;;;;;5076195;28;20239;-84
2022/01/31 10:05:58;;;;;;;3.57;2.10;;;;;;;;;;5077775;28;20228;-83
2022/01/31 10:08:29;;;;;;;3.87;2.50;;;;;;;;;;5076316;28;20234;-84
2022/01/31 10:11:00;;;;;;;2.93;2.43;;;;;;;;;;5078610;28;20618;-83
2022/01/31 10:16:28;;;;;;;1.97;1.83;;;;;;;;;;5076182;28;20258;-83
2022/01/31 10:19:09;;;;;;;5.67;2.40;;;;;;;;;;5076840;28;20232;-83
2022/01/31 10:21:54;;;;;;;3.10;2.00;;;;;;;;;;5075456;28;20204;-83
2022/01/31 10:24:21;;;;;;;3.30;2.13;;;;;;;;;;5076714;28;20229;-83
2022/01/31 10:26:48;;;;;;;2.00;1.90;;;;;;;;;;5076467;28;20756;-84
2022/01/31 10:29:16;;;;;;;1.97;1.87;;;;;;;;;;5076609;28;20234;-83
2022/01/31 10:31:55;;;;;;;3.90;1.97;;;;;;;;;;5075241;28;20244;-84
2022/01/31 10:34:24;;;;;;;2.47;2.13;;;;;;;;;;5076115;28;20694;-83
2022/01/31 10:36:52;;;;;;;2.33;1.70;;;;;;;;;;5075817;28;20711;-83
2022/01/31 10:45:25;;;;;;;5.07;2.10;;;;;;;;;;5090677;22;20766;-84
2022/01/31 10:51:16;;;;;;;3.63;1.90;;;;;;;;;;5056362;28;20576;-84
2022/01/31 10:53:48;;;;;;;2.30;1.80;;;;;;;;;;5056012;28;20230;-84
2022/01/31 10:56:15;;;;;;;2.20;2.00;;;;;;;;;;5055394;28;20231;-83
2022/01/31 10:58:54;;;;;;;4.00;2.23;;;;;;;;;;5056260;28;20304;-83
2022/01/31 11:01:21;;;;;;;4.03;1.83;;;;;;;;;;5044884;28;20210;-83
2022/01/31 11:03:49;;;;;;;3.23;1.90;;;;;;;;;;5036248;28;20206;-83
2022/01/31 11:06:16;;;;;;;2.93;2.10;;;;;;;;;;5035210;28;20235;-83
2022/01/31 11:08:44;;;;;;;4.77;1.87;;;;;;;;;;5052218;28;20236;-85
2022/01/31 11:11:11;;;;;;;3.70;2.13;;;;;;;;;;5055165;28;20209;-85
2022/01/31 11:13:39;;;;;;;1.93;1.80;;;;;;;;;;5054688;28;20257;-85
2022/01/31 11:16:07;;;;;;;1.83;1.70;;;;;;;;;;5054991;28;20225;-85
2022/01/31 11:18:35;;;;;;;2.40;2.03;;;;;;;;;;5054346;28;20230;-85
2022/01/31 11:21:04;;;;;;;3.10;2.10;;;;;;;;;;5055426;28;20210;-83
2022/01/31 11:23:37;;;;;;;3.33;1.80;;;;;;;;;;5054648;28;20234;-85
2022/01/31 11:26:07;;;;;;;2.00;1.80;;;;;;;;;;5055041;28;20291;-84
2022/01/31 11:28:35;;;;;;;2.13;1.70;;;;;;;;;;5056015;28;20246;-85
2022/01/31 11:31:02;;;;;;;1.87;1.73;;;;;;;;;;5056759;28;20206;-85
2022/01/31 11:33:30;;;;;;;3.63;1.70;;;;;;;;;;5054836;28;20949;-85
2022/01/31 11:35:57;;;;;;;1.70;1.60;;;;;;;;;;5054803;28;20222;-84
2022/01/31 11:38:26;;;;;;;1.87;1.60;;;;;;;;;;5054275;28;20240;-85
2022/01/31 11:40:53;;;;;;;1.90;1.80;;;;;;;;;;5054273;28;20198;-85
2022/01/31 11:43:22;;;;;;;2.27;2.17;;;;;;;;;;5053695;28;20292;-85
2022/01/31 11:45:52;;;;;;;3.93;1.90;;;;;;;;;;5053430;28;20230;-85
2022/01/31 11:48:20;;;;;;;2.33;2.13;;;;;;;;;;5053754;28;20638;-85
2022/01/31 11:50:48;;;;;;;5.70;2.03;;;;;;;;;;5053891;28;20198;-84
2022/01/31 11:53:15;;;;;;;1.80;1.70;;;;;;;;;;5053214;28;20242;-85
2022/01/31 11:55:44;;;;;;;2.60;2.40;;;;;;;;;;5054742;28;20241;-83
2022/01/31 11:58:14;;;;;;;4.10;3.20;;;;;;;;;;5054835;28;20243;-82
2022/01/31 12:00:42;;;;;;;2.40;1.90;;;;;;;;;;5059181;28;20186;-82
2022/01/31 12:03:11;;;;;;;2.57;1.70;;;;;;;;;;5062594;28;20237;-81
2022/01/31 12:05:40;;;;;;;2.43;1.73;;;;;;;;;;5062288;28;20229;-82
2022/01/31 12:08:09;;;;;;;3.93;1.93;;;;;;;;;;5060789;28;20234;-83
2022/01/31 12:10:38;;;;;;;2.43;1.93;;;;;;;;;;5057953;28;20261;-80
2022/01/31 12:13:18;;;;;;;1.53;1.50;;;;;;;;;;5057083;28;20230;-80
2022/01/31 12:16:02;;;;;;;2.80;1.90;;;;;;;;;;5055916;28;20235;-80
2022/01/31 12:24:05;;;;;;;2.63;2.17;;;;;;;;;;5054317;28;20327;-82
2022/01/31 12:26:52;;;;;;;4.40;3.60;;;;;;;;;;5053892;28;20226;-82
2022/01/31 12:29:22;;;;;;;1.70;1.60;;;;;;;;;;5047974;28;20241;-82
2022/01/31 12:31:50;;;;;;;1.77;1.67;;;;;;;;;;5054089;28;20241;-81
2022/01/31 12:34:36;;;;;;;2.13;1.87;;;;;;;;;;5055002;28;20205;-81
2022/01/31 12:37:04;;;;;;;3.30;1.90;;;;;;;;;;5054477;28;20244;-83
2022/01/31 12:39:48;;;;;;;1.60;1.60;;;;;;;;;;5056677;28;20206;-81
2022/01/31 12:42:45;;;;;;;2.17;2.03;;;;;;;;;;5059177;28;20241;-81
2022/01/31 12:45:15;;;;;;;1.80;1.70;;;;;;;;;;5057058;28;20240;-82
2022/01/31 12:47:57;;;;;;;2.30;1.67;;;;;;;;;;5056944;28;20238;-81
2022/01/31 12:50:25;;;;;;;1.90;1.80;;;;;;;;;;5059055;28;20326;-82
2022/01/31 12:52:52;;;;;;;2.17;1.70;;;;;;;;;;5056092;28;20245;-83
2022/01/31 12:55:19;;;;;;;1.60;1.50;;;;;;;;;;5054110;28;20587;-82
2022/01/31 12:57:50;;;;;;;1.93;1.70;;;;;;;;;;5054705;28;20237;-82
2022/01/31 13:00:32;;;;;;;2.90;1.90;;;;;;;;;;5054369;28;20602;-82
2022/01/31 13:02:59;;;;;;;3.13;1.70;;;;;;;;;;5052540;28;20245;-82
2022/01/31 13:05:32;;;;;;;2.03;1.50;;;;;;;;;;5054358;28;20623;-82
2022/01/31 13:07:59;;;;;;;1.77;1.67;;;;;;;;;;5052724;28;20233;-82
2022/01/31 13:10:28;;;;;;;1.87;1.70;;;;;;;;;;5053019;28;20848;-82
2022/01/31 13:13:01;;;;;;;1.73;1.63;;;;;;;;;;5053821;28;20265;-82
2022/01/31 13:15:31;;;;;;;2.93;1.80;;;;;;;;;;5055554;28;20230;-82
2022/01/31 13:18:03;;;;;;;8.43;2.10;;;;;;;;;;5055889;28;20237;-82
2022/01/31 13:20:31;;;;;;;2.57;2.10;;;;;;;;;;5057156;28;20625;-82
2022/01/31 13:22:58;;;;;;;3.77;2.00;;;;;;;;;;5051881;28;20592;-82
2022/01/31 13:25:25;;;;;;;2.07;1.67;;;;;;;;;;5052003;28;20230;-82
2022/01/31 13:27:52;;;;;;;1.73;1.63;;;;;;;;;;5052239;28;20230;-82
2022/01/31 13:30:21;;;;;;;2.50;2.13;;;;;;;;;;5054284;28;20210;-83
2022/01/31 13:32:49;;;;;;;1.80;1.70;;;;;;;;;;5049804;28;20689;-83
2022/01/31 13:35:17;;;;;;;2.10;2.00;;;;;;;;;;5043607;28;20236;-82
2022/01/31 13:37:50;;;;;;;2.00;1.80;;;;;;;;;;5038712;28;20238;-83
2022/01/31 13:40:19;;;;;;;1.97;1.87;;;;;;;;;;5048696;28;20206;-80
2022/01/31 13:42:47;;;;;;;2.00;1.80;;;;;;;;;;5047351;28;20352;-82
2022/01/31 13:45:16;;;;;;;1.80;1.70;;;;;;;;;;5045638;28;20244;-83
2022/01/31 13:47:50;;;;;;;1.77;1.77;;;;;;;;;;5048453;28;20253;-81
2022/01/31 13:50:24;;;;;;;1.70;1.60;;;;;;;;;;5045577;28;20194;-82
2022/01/31 13:52:55;;;;;;;1.80;1.50;;;;;;;;;;5052160;28;20238;-82
2022/01/31 13:55:22;;;;;;;1.50;1.50;;;;;;;;;;5052166;28;20229;-84
2022/01/31 13:57:50;;;;;;;3.03;1.60;;;;;;;;;;5052103;28;20256;-84
2022/01/31 14:00:17;;;;;;;1.77;1.73;;;;;;;;;;5052658;28;20213;-83
2022/01/31 14:02:59;;;;;;;2.00;1.80;;;;;;;;;;5040972;28;20237;-85
2022/01/31 14:05:27;;;;;;;2.57;1.70;;;;;;;;;;5052085;28;20233;-85
2022/01/31 14:08:01;;;;;;;1.53;1.43;;;;;;;;;;5051670;28;20657;-84
2022/01/31 14:10:31;;;;;;;1.70;1.60;;;;;;;;;;5052695;28;20237;-85
2022/01/31 14:12:58;;;;;;;2.00;1.90;;;;;;;;;;5051656;28;20584;-85
2022/01/31 14:15:25;;;;;;;3.80;1.80;;;;;;;;;;5051474;28;20637;-84
2022/01/31 14:17:53;;;;;;;2.47;1.87;;;;;;;;;;5051917;28;20234;-83
2022/01/31 14:20:20;;;;;;;1.90;1.73;;;;;;;;;;5051685;28;20757;-83
2022/01/31 14:23:02;;;;;;;2.33;2.00;;;;;;;;;;5046803;28;20239;-83
2022/01/31 14:25:36;;;;;;;1.90;1.80;;;;;;;;;;5054832;28;20228;-82
2022/01/31 14:28:05;;;;;;;2.30;2.10;;;;;;;;;;5055646;28;20727;-83
2022/01/31 14:30:32;;;;;;;2.30;1.87;;;;;;;;;;5054966;28;20210;-84
2022/01/31 14:33:00;;;;;;;2.30;2.10;;;;;;;;;;5041322;28;20647;-85
2022/01/31 14:35:28;;;;;;;2.00;1.90;;;;;;;;;;5045789;28;20762;-84
2022/01/31 14:37:58;;;;;;;1.90;1.80;;;;;;;;;;5054523;28;20283;-85
2022/01/31 14:48:57;;;;;;;2.50;2.00;;;;;;;;;;5040892;28;20697;-83
2022/01/31 14:51:25;;;;;;;1.67;1.60;;;;;;;;;;5053809;28;20562;-84
2022/01/31 14:53:57;;;;;;;2.33;1.80;;;;;;;;;;5047721;28;20683;-84
2022/01/31 14:56:25;;;;;;;2.43;1.80;;;;;;;;;;5036448;28;20219;-84
2022/01/31 14:58:52;;;;;;;4.53;1.73;;;;;;;;;;5034772;28;20666;-84
2022/01/31 15:01:19;;;;;;;2.87;2.00;;;;;;;;;;5034261;28;20214;-84
2022/01/31 15:03:46;;;;;;;2.50;1.80;;;;;;;;;;5034532;28;20203;-84
2022/01/31 15:06:13;;;;;;;1.43;1.43;;;;;;;;;;5034211;28;20227;-85
2022/01/31 15:08:40;;;;;;;2.00;1.87;;;;;;;;;;5034086;28;20238;-85
2022/01/31 15:11:09;;;;;;;1.70;1.60;;;;;;;;;;5034666;28;20636;-85
2022/01/31 15:13:37;;;;;;;3.63;2.20;;;;;;;;;;5034180;28;20300;-87
2022/01/31 15:16:06;;;;;;;1.70;1.60;;;;;;;;;;5034689;28;20234;-85